createdAt,value
2023-09-16T00:00:00.425Z,92.06
2023-09-16T00:05:10.745Z,92.30
2023-09-16T00:10:19.520Z,91.15
2023-09-16T00:15:29.164Z,90.54
2023-09-16T00:20:40.095Z,90.02
2023-09-16T00:25:48.880Z,91.05
2023-09-16T00:30:57.062Z,91.54
2023-09-16T00:36:05.727Z,91.31
2023-09-16T00:41:14.418Z,91.86
2023-09-16T00:46:22.498Z,92.49
2023-09-16T00:51:31.538Z,92.55
2023-09-16T00:56:39.973Z,92.45
2023-09-16T01:01:51.431Z,91.09
2023-09-16T01:07:00.466Z,92.26
2023-09-16T01:12:10.222Z,92.12
2023-09-16T01:17:33.784Z,92.78
2023-09-16T01:22:46.342Z,92.17
2023-09-16T01:27:54.899Z,92.07
2023-09-16T01:33:11.226Z,92.49
2023-09-16T01:38:24.299Z,92.22
2023-09-16T01:43:33.648Z,91.58
2023-09-16T01:48:47.255Z,91.78
2023-09-16T01:53:56.234Z,91.73
2023-09-16T01:59:05.059Z,92.09
2023-09-16T02:04:13.158Z,91.77
2023-09-16T02:09:21.160Z,91.91
2023-09-16T02:14:29.255Z,92.63
2023-09-16T02:19:38.106Z,92.74
2023-09-16T02:24:46.541Z,92.62
2023-09-16T02:29:55.237Z,92.63
2023-09-16T02:35:03.492Z,92.24
2023-09-16T02:40:12.873Z,92.24
2023-09-16T02:45:21.482Z,92.16
2023-09-16T02:50:29.572Z,92.04
2023-09-16T02:55:37.673Z,92.57
2023-09-16T03:00:48.058Z,92.56
2023-09-16T03:05:56.368Z,92.51
2023-09-16T03:11:07.613Z,91.96
2023-09-16T03:16:20.981Z,92.27
2023-09-16T03:21:29.581Z,92.89
2023-09-16T03:26:37.705Z,92.50
2023-09-16T03:31:46.086Z,92.50
2023-09-16T03:36:54.815Z,92.15
2023-09-16T03:42:02.983Z,92.21
2023-09-16T03:47:11.947Z,92.27
2023-09-16T03:52:20.168Z,91.30
2023-09-16T03:57:28.280Z,90.74
2023-09-16T04:02:36.477Z,91.53
2023-09-16T04:07:45.026Z,92.09
2023-09-16T04:12:53.547Z,92.54
2023-09-16T04:18:01.685Z,91.30
2023-09-16T04:23:11.222Z,91.89
2023-09-16T04:28:19.905Z,92.46
2023-09-16T04:33:28.357Z,91.72
2023-09-16T04:38:36.407Z,91.04
2023-09-16T04:43:45.090Z,91.41
2023-09-16T04:48:53.458Z,92.21
2023-09-16T04:54:02.717Z,91.92
2023-09-16T04:59:10.794Z,92.48
2023-09-16T05:04:18.880Z,92.97
2023-09-16T05:09:27.083Z,93.31
2023-09-16T05:14:35.423Z,93.86
2023-09-16T05:19:43.603Z,93.89
2023-09-16T05:24:54.298Z,94.90
2023-09-16T05:30:03.908Z,95.27
2023-09-16T05:35:12.492Z,94.80
2023-09-16T05:40:20.779Z,94.85
2023-09-16T05:45:29.276Z,94.68
2023-09-16T05:50:37.741Z,95.55
2023-09-16T05:55:45.787Z,94.50
2023-09-16T06:01:00.405Z,93.27
2023-09-16T06:06:11.060Z,91.82
2023-09-16T06:11:19.518Z,89.53
2023-09-16T06:16:27.861Z,89.29
2023-09-16T06:21:36.160Z,87.78
2023-09-16T06:26:44.300Z,86.81
2023-09-16T06:31:52.436Z,85.45
2023-09-16T06:37:01.237Z,84.49
2023-09-16T06:42:09.588Z,83.23
2023-09-16T06:47:17.789Z,82.89
2023-09-16T06:52:27.934Z,81.33
2023-09-16T06:57:36.092Z,80.68
2023-09-16T07:02:44.264Z,78.40
2023-09-16T07:07:54.091Z,77.37
2023-09-16T07:13:02.151Z,76.94
2023-09-16T07:18:10.571Z,74.75
2023-09-16T07:23:18.714Z,73.79
2023-09-16T07:28:28.215Z,72.15
2023-09-16T07:33:36.364Z,69.89
2023-09-16T07:38:45.508Z,68.03
2023-09-16T07:43:53.644Z,66.21
2023-09-16T07:49:02.098Z,64.08
2023-09-16T07:54:10.816Z,63.36
2023-09-16T07:59:21.623Z,61.49
2023-09-16T08:04:29.920Z,61.12
2023-09-16T08:09:38.206Z,59.26
2023-09-16T08:14:46.263Z,59.40
2023-09-16T08:19:54.665Z,59.73
2023-09-16T08:25:05.191Z,58.58
2023-09-16T08:30:15.112Z,58.28
2023-09-16T08:35:26.437Z,59.33
2023-09-16T08:40:34.705Z,58.44
2023-09-16T08:45:50.737Z,57.94
2023-09-16T08:51:00.029Z,58.60
2023-09-16T08:56:10.142Z,59.31
2023-09-16T09:01:20.434Z,60.52
2023-09-16T09:06:40.109Z,59.85
2023-09-16T09:11:49.974Z,60.21
2023-09-16T09:17:01.854Z,59.58
2023-09-16T09:22:10.978Z,57.96
2023-09-16T09:27:19.119Z,57.97
2023-09-16T09:32:32.629Z,57.60
2023-09-16T09:37:41.275Z,56.49
2023-09-16T09:42:51.822Z,56.59
2023-09-16T09:48:00.670Z,54.96
2023-09-16T09:53:08.998Z,52.44
2023-09-16T09:58:17.124Z,50.70
2023-09-16T10:03:25.926Z,49.37
2023-09-16T10:08:35.072Z,48.37
2023-09-16T10:13:43.548Z,47.81
2023-09-16T10:18:52.103Z,46.55
2023-09-16T10:24:00.561Z,44.60
2023-09-16T10:29:10.911Z,44.13
2023-09-16T10:34:19.179Z,43.53
2023-09-16T10:39:30.744Z,43.32
2023-09-16T10:44:40.130Z,43.15
2023-09-16T10:49:48.961Z,43.41
2023-09-16T10:55:06.165Z,42.51
2023-09-16T11:00:16.333Z,42.76
2023-09-16T11:05:24.508Z,41.24
2023-09-16T11:10:33.282Z,40.86
2023-09-16T11:15:44.670Z,40.66
2023-09-16T11:20:53.296Z,39.76
2023-09-16T11:26:04.578Z,39.25
2023-09-16T11:31:12.803Z,39.63
2023-09-16T11:36:21.723Z,39.54
2023-09-16T11:41:29.816Z,39.89
2023-09-16T11:46:38.889Z,39.89
2023-09-16T11:51:52.466Z,39.39
2023-09-16T11:57:01.920Z,39.80
2023-09-16T12:02:10.998Z,40.22
2023-09-16T12:07:26.412Z,38.54
2023-09-16T12:12:36.112Z,38.54
2023-09-16T12:17:44.413Z,38.80
2023-09-16T12:22:54.135Z,38.18
2023-09-16T12:28:02.443Z,38.21
2023-09-16T12:33:10.507Z,39.05
2023-09-16T12:38:19.586Z,38.25
2023-09-16T12:43:28.326Z,37.96
2023-09-16T12:48:39.504Z,38.25
2023-09-16T12:53:48.617Z,38.36
2023-09-16T12:58:56.801Z,37.93
2023-09-16T13:04:07.358Z,38.22
2023-09-16T13:09:15.544Z,38.53
2023-09-16T13:14:24.140Z,38.03
2023-09-16T13:19:32.338Z,38.74
2023-09-16T13:24:46.501Z,38.52
2023-09-16T13:30:03.537Z,38.68
2023-09-16T13:35:14.185Z,39.42
2023-09-16T13:40:23.629Z,39.40
2023-09-16T13:45:32.077Z,39.10
2023-09-16T13:50:42.862Z,39.83
2023-09-16T13:55:54.392Z,40.29
2023-09-16T14:01:02.622Z,40.35
2023-09-16T14:06:10.990Z,39.91
2023-09-16T14:11:20.897Z,40.20
2023-09-16T14:16:30.800Z,40.54
2023-09-16T14:21:39.399Z,40.66
2023-09-16T14:26:47.546Z,40.67
2023-09-16T14:31:55.798Z,41.37
2023-09-16T14:37:04.110Z,41.35
2023-09-16T14:42:12.235Z,41.86
2023-09-16T14:47:20.312Z,41.42
2023-09-16T14:52:28.480Z,41.05
2023-09-16T14:57:36.623Z,41.66
2023-09-16T15:02:46.601Z,42.52
2023-09-16T15:07:54.895Z,42.58
2023-09-16T15:13:03.007Z,43.48
2023-09-16T15:18:11.513Z,44.36
2023-09-16T15:23:20.319Z,45.01
2023-09-16T15:28:28.578Z,46.43
2023-09-16T15:33:37.244Z,46.36
2023-09-16T15:38:45.460Z,46.91
2023-09-16T15:43:53.556Z,47.28
2023-09-16T15:49:01.827Z,47.76
2023-09-16T15:54:10.264Z,47.82
2023-09-16T15:59:18.301Z,48.27
2023-09-16T16:04:26.686Z,49.09
2023-09-16T16:09:34.898Z,50.10
2023-09-16T16:14:42.969Z,51.02
2023-09-16T16:19:51.760Z,50.91
2023-09-16T16:25:00.593Z,52.28
2023-09-16T16:30:12.274Z,53.63
2023-09-16T16:35:20.955Z,54.46
2023-09-16T16:40:29.149Z,55.71
2023-09-16T16:45:37.248Z,57.36
2023-09-16T16:50:45.859Z,58.42
2023-09-16T16:55:53.968Z,59.18
2023-09-16T17:01:02.304Z,60.42
2023-09-16T17:06:10.521Z,63.00
2023-09-16T17:11:18.702Z,64.91
2023-09-16T17:16:27.387Z,66.62
2023-09-16T17:21:35.555Z,67.95
2023-09-16T17:26:43.683Z,68.13
2023-09-16T17:31:52.084Z,69.39
2023-09-16T17:37:01.407Z,71.11
2023-09-16T17:42:09.977Z,71.73
2023-09-16T17:47:18.053Z,72.63
2023-09-16T17:52:26.333Z,74.22
2023-09-16T17:57:35.455Z,74.25
2023-09-16T18:02:44.350Z,74.38
2023-09-16T18:07:52.565Z,74.73
2023-09-16T18:13:00.658Z,76.35
2023-09-16T18:18:10.146Z,77.71
2023-09-16T18:23:18.852Z,78.89
2023-09-16T18:28:27.436Z,79.56
2023-09-16T18:33:35.897Z,79.98
2023-09-16T18:38:44.396Z,80.51
2023-09-16T18:43:53.556Z,81.23
2023-09-16T18:49:01.806Z,81.18
2023-09-16T18:54:11.101Z,81.62
2023-09-16T18:59:19.311Z,81.91
2023-09-16T19:04:27.540Z,82.55
2023-09-16T19:09:36.924Z,83.24
2023-09-16T19:14:45.036Z,83.76
2023-09-16T19:19:53.570Z,84.01
2023-09-16T19:25:02.105Z,84.63
2023-09-16T19:30:13.352Z,86.08
2023-09-16T19:35:22.495Z,86.59
2023-09-16T19:40:30.554Z,86.05
2023-09-16T19:45:39.427Z,85.86
2023-09-16T19:50:50.999Z,85.94
2023-09-16T19:55:59.097Z,86.35
2023-09-16T20:01:07.279Z,87.12
2023-09-16T20:06:16.924Z,86.69
2023-09-16T20:11:25.124Z,86.25
2023-09-16T20:16:33.690Z,86.69
2023-09-16T20:21:41.910Z,87.50
2023-09-16T20:26:50.357Z,87.05
2023-09-16T20:31:58.503Z,86.61
2023-09-16T20:37:07.546Z,87.62
2023-09-16T20:42:15.910Z,88.42
2023-09-16T20:47:24.251Z,88.41
2023-09-16T20:52:33.801Z,88.31
2023-09-16T20:57:42.022Z,88.13
2023-09-16T21:02:51.034Z,88.15
2023-09-16T21:07:59.296Z,88.29
2023-09-16T21:13:07.780Z,89.15
2023-09-16T21:18:15.916Z,89.21
2023-09-16T21:23:25.486Z,89.34
2023-09-16T21:28:34.659Z,89.79
2023-09-16T21:33:43.815Z,89.83
2023-09-16T21:38:51.884Z,88.93
2023-09-16T21:44:00.584Z,89.04
2023-09-16T21:49:08.752Z,90.45
2023-09-16T21:54:16.900Z,91.55
2023-09-16T21:59:25.199Z,91.90
2023-09-16T22:04:33.638Z,91.20
2023-09-16T22:09:41.827Z,90.83
2023-09-16T22:14:49.898Z,90.27
2023-09-16T22:19:58.174Z,91.35
2023-09-16T22:25:08.480Z,91.21
2023-09-16T22:30:20.713Z,90.72
2023-09-16T22:35:29.038Z,90.96
2023-09-16T22:40:37.202Z,91.42
2023-09-16T22:45:46.586Z,91.95
2023-09-16T22:50:54.808Z,91.08
2023-09-16T22:56:03.040Z,91.12
2023-09-16T23:01:11.332Z,91.55
2023-09-16T23:06:19.459Z,91.49
2023-09-16T23:11:27.463Z,90.81
2023-09-16T23:16:35.673Z,91.08
2023-09-16T23:21:43.870Z,91.54
2023-09-16T23:26:51.950Z,91.60
2023-09-16T23:32:00.134Z,91.18
2023-09-16T23:37:08.473Z,90.99
2023-09-16T23:42:16.574Z,91.57
2023-09-16T23:47:25.380Z,91.66
2023-09-16T23:52:34.405Z,91.64
2023-09-16T23:57:42.501Z,92.04
